Terminal Aerodrome Forecast
Issued by NWS Cleveland, OH

Home | Current Version | Previous Version | Graphics & Text | Print | Product List | Glossary On
Versions: 1 2 3 4 5 6 7 8 9 10 11 12 13 14 15 16
114
FTUS41 KCLE 171739
TAFYNG
TAF
KYNG 171739Z 1718/1818 18010KT P6SM VCSH BKN015
      TEMPO 1718/1720 5SM -SHRA BKN004
     FM172000 24010G18KT P6SM SCT015 BKN020
     FM180000 25008KT 5SM BR OVC006
     FM180800 25008KT 2SM BR VCSH OVC002
     FM181500 25008KT 5SM BR OVC006=

USA.gov is the U.S. government's official web portal to all federal, state and local government web resources and services.